sensor_id;sensor_type;location;lat;lon;timestamp;pressure;altitude;pressure_sealevel;temperature
80496;BMP180;69819;48.798;11.770;2023-07-13T00:00:03;97427.00;;;22.70
80496;BMP180;69819;48.798;11.770;2023-07-13T00:02:34;97422.00;;;22.70
80496;BMP180;69819;48.798;11.770;2023-07-13T00:05:00;97409.00;;;22.60
80496;BMP180;69819;48.798;11.770;2023-07-13T00:07:26;97444.00;;;22.60
80496;BMP180;69819;48.798;11.770;2023-07-13T00:09:52;97440.00;;;22.60
80496;BMP180;69819;48.798;11.770;2023-07-13T00:12:35;97444.00;;;22.60
80496;BMP180;69819;48.798;11.770;2023-07-13T00:15:11;97446.00;;;22.60
80496;BMP180;69819;48.798;11.770;2023-07-13T00:17:37;97445.00;;;22.60
80496;BMP180;69819;48.798;11.770;2023-07-13T00:20:06;97454.00;;;22.60
80496;BMP180;69819;48.798;11.770;2023-07-13T00:22:32;97454.00;;;22.60
80496;BMP180;69819;48.798;11.770;2023-07-13T00:24:58;97432.00;;;22.60
80496;BMP180;69819;48.798;11.770;2023-07-13T00:27:25;97432.00;;;22.60
80496;BMP180;69819;48.798;11.770;2023-07-13T00:29:52;97408.00;;;22.60
80496;BMP180;69819;48.798;11.770;2023-07-13T00:32:18;97430.00;;;22.60
80496;BMP180;69819;48.798;11.770;2023-07-13T00:34:44;97392.00;;;22.60
80496;BMP180;69819;48.798;11.770;2023-07-13T00:37:10;97414.00;;;22.60
80496;BMP180;69819;48.798;11.770;2023-07-13T00:39:37;97436.00;;;22.50
80496;BMP180;69819;48.798;11.770;2023-07-13T00:42:04;97436.00;;;22.50
80496;BMP180;69819;48.798;11.770;2023-07-13T00:44:30;97399.00;;;22.50
80496;BMP180;69819;48.798;11.770;2023-07-13T00:46:56;97401.00;;;22.50
80496;BMP180;69819;48.798;11.770;2023-07-13T00:49:27;97429.00;;;22.40
80496;BMP180;69819;48.798;11.770;2023-07-13T00:51:56;97437.00;;;22.40
80496;BMP180;69819;48.798;11.770;2023-07-13T00:54:43;97413.00;;;22.40
80496;BMP180;69819;48.798;11.770;2023-07-13T00:57:16;97428.00;;;22.40
80496;BMP180;69819;48.798;11.770;2023-07-13T00:59:48;97437.00;;;22.40
80496;BMP180;69819;48.798;11.770;2023-07-13T01:02:15;97402.00;;;22.40
80496;BMP180;69819;48.798;11.770;2023-07-13T01:04:42;97431.00;;;22.40
80496;BMP180;69819;48.798;11.770;2023-07-13T01:07:12;97429.00;;;22.40
80496;BMP180;69819;48.798;11.770;2023-07-13T01:09:38;97433.00;;;22.40
80496;BMP180;69819;48.798;11.770;2023-07-13T01:12:04;97376.00;;;22.40
80496;BMP180;69819;48.798;11.770;2023-07-13T01:14:31;97437.00;;;22.40
80496;BMP180;69819;48.798;11.770;2023-07-13T01:16:57;97439.00;;;22.40
80496;BMP180;69819;48.798;11.770;2023-07-13T01:19:44;97443.00;;;22.40
80496;BMP180;69819;48.798;11.770;2023-07-13T01:22:15;97430.00;;;22.30
80496;BMP180;69819;48.798;11.770;2023-07-13T01:24:45;97441.00;;;22.30
80496;BMP180;69819;48.798;11.770;2023-07-13T01:27:19;97421.00;;;22.30
80496;BMP180;69819;48.798;11.770;2023-07-13T01:29:45;97421.00;;;22.30
80496;BMP180;69819;48.798;11.770;2023-07-13T01:32:18;97382.00;;;22.30
80496;BMP180;69819;48.798;11.770;2023-07-13T01:34:48;97419.00;;;22.30
80496;BMP180;69819;48.798;11.770;2023-07-13T01:37:15;97423.00;;;22.30
80496;BMP180;69819;48.798;11.770;2023-07-13T01:39:40;97444.00;;;22.30
80496;BMP180;69819;48.798;11.770;2023-07-13T01:42:07;97396.00;;;22.30
80496;BMP180;69819;48.798;11.770;2023-07-13T01:44:33;97426.00;;;22.20
80496;BMP180;69819;48.798;11.770;2023-07-13T01:47:01;97409.00;;;22.20
80496;BMP180;69819;48.798;11.770;2023-07-13T01:49:27;97408.00;;;22.20
80496;BMP180;69819;48.798;11.770;2023-07-13T01:51:52;97416.00;;;22.20
80496;BMP180;69819;48.798;11.770;2023-07-13T01:54:18;97393.00;;;22.20
80496;BMP180;69819;48.798;11.770;2023-07-13T01:56:44;97407.00;;;22.20
80496;BMP180;69819;48.798;11.770;2023-07-13T01:59:10;97401.00;;;22.20
80496;BMP180;69819;48.798;11.770;2023-07-13T02:01:36;97391.00;;;22.10
80496;BMP180;69819;48.798;11.770;2023-07-13T02:04:03;97362.00;;;22.10
80496;BMP180;69819;48.798;11.770;2023-07-13T02:06:29;97400.00;;;22.10
80496;BMP180;69819;48.798;11.770;2023-07-13T02:08:55;97353.00;;;22.10
80496;BMP180;69819;48.798;11.770;2023-07-13T02:11:21;97394.00;;;22.10
80496;BMP180;69819;48.798;11.770;2023-07-13T02:13:47;97390.00;;;22.10
80496;BMP180;69819;48.798;11.770;2023-07-13T02:16:13;97390.00;;;22.10
80496;BMP180;69819;48.798;11.770;2023-07-13T02:18:39;97383.00;;;22.00
80496;BMP180;69819;48.798;11.770;2023-07-13T02:21:04;97406.00;;;22.00
80496;BMP180;69819;48.798;11.770;2023-07-13T02:23:30;97404.00;;;22.00
80496;BMP180;69819;48.798;11.770;2023-07-13T02:25:57;97402.00;;;21.90
80496;BMP180;69819;48.798;11.770;2023-07-13T02:28:24;97379.00;;;21.90
80496;BMP180;69819;48.798;11.770;2023-07-13T02:30:50;97393.00;;;21.90
80496;BMP180;69819;48.798;11.770;2023-07-13T02:33:16;97358.00;;;21.90
80496;BMP180;69819;48.798;11.770;2023-07-13T02:35:42;97365.00;;;21.90
80496;BMP180;69819;48.798;11.770;2023-07-13T02:38:08;97411.00;;;21.80
80496;BMP180;69819;48.798;11.770;2023-07-13T02:40:34;97412.00;;;21.80
80496;BMP180;69819;48.798;11.770;2023-07-13T02:43:01;97419.00;;;21.80
80496;BMP180;69819;48.798;11.770;2023-07-13T02:45:28;97415.00;;;21.80
80496;BMP180;69819;48.798;11.770;2023-07-13T02:47:54;97419.00;;;21.80
80496;BMP180;69819;48.798;11.770;2023-07-13T02:50:20;97427.00;;;21.80
80496;BMP180;69819;48.798;11.770;2023-07-13T02:52:46;97417.00;;;21.80
80496;BMP180;69819;48.798;11.770;2023-07-13T02:55:12;97391.00;;;21.80
80496;BMP180;69819;48.798;11.770;2023-07-13T02:57:38;97400.00;;;21.80
80496;BMP180;69819;48.798;11.770;2023-07-13T03:00:05;97437.00;;;21.70
80496;BMP180;69819;48.798;11.770;2023-07-13T03:02:32;97398.00;;;21.70
80496;BMP180;69819;48.798;11.770;2023-07-13T03:04:59;97436.00;;;21.70
80496;BMP180;69819;48.798;11.770;2023-07-13T03:07:25;97454.00;;;21.70
80496;BMP180;69819;48.798;11.770;2023-07-13T03:09:56;97449.00;;;21.60
80496;BMP180;69819;48.798;11.770;2023-07-13T03:12:24;97458.00;;;21.60
80496;BMP180;69819;48.798;11.770;2023-07-13T03:14:50;97453.00;;;21.60
80496;BMP180;69819;48.798;11.770;2023-07-13T03:17:16;97459.00;;;21.60
80496;BMP180;69819;48.798;11.770;2023-07-13T03:19:42;97449.00;;;21.60
80496;BMP180;69819;48.798;11.770;2023-07-13T03:22:09;97450.00;;;21.60
80496;BMP180;69819;48.798;11.770;2023-07-13T03:24:35;97460.00;;;21.60
80496;BMP180;69819;48.798;11.770;2023-07-13T03:27:05;97478.00;;;21.50
80496;BMP180;69819;48.798;11.770;2023-07-13T03:29:31;97464.00;;;21.50
80496;BMP180;69819;48.798;11.770;2023-07-13T03:31:57;97457.00;;;21.50
80496;BMP180;69819;48.798;11.770;2023-07-13T03:34:23;97449.00;;;21.50
80496;BMP180;69819;48.798;11.770;2023-07-13T03:36:48;97469.00;;;21.50
80496;BMP180;69819;48.798;11.770;2023-07-13T03:39:14;97474.00;;;21.50
80496;BMP180;69819;48.798;11.770;2023-07-13T03:41:40;97454.00;;;21.40
80496;BMP180;69819;48.798;11.770;2023-07-13T03:44:06;97458.00;;;21.50
80496;BMP180;69819;48.798;11.770;2023-07-13T03:46:33;97471.00;;;21.50
80496;BMP180;69819;48.798;11.770;2023-07-13T03:48:59;97485.00;;;21.50
80496;BMP180;69819;48.798;11.770;2023-07-13T03:51:25;97461.00;;;21.50
80496;BMP180;69819;48.798;11.770;2023-07-13T03:53:51;97487.00;;;21.50
80496;BMP180;69819;48.798;11.770;2023-07-13T03:56:18;97484.00;;;21.50
80496;BMP180;69819;48.798;11.770;2023-07-13T03:58:48;97492.00;;;21.50
80496;BMP180;69819;48.798;11.770;2023-07-13T04:01:16;97472.00;;;21.50
80496;BMP180;69819;48.798;11.770;2023-07-13T04:03:43;97473.00;;;21.60
80496;BMP180;69819;48.798;11.770;2023-07-13T04:06:17;97489.00;;;21.60
80496;BMP180;69819;48.798;11.770;2023-07-13T04:08:52;97466.00;;;21.60
80496;BMP180;69819;48.798;11.770;2023-07-13T04:11:20;97479.00;;;21.70
80496;BMP180;69819;48.798;11.770;2023-07-13T04:13:46;97480.00;;;21.70
80496;BMP180;69819;48.798;11.770;2023-07-13T04:16:15;97442.00;;;21.80
80496;BMP180;69819;48.798;11.770;2023-07-13T04:18:41;97470.00;;;21.80
80496;BMP180;69819;48.798;11.770;2023-07-13T04:21:08;97484.00;;;21.90
80496;BMP180;69819;48.798;11.770;2023-07-13T04:23:36;97451.00;;;22.00
80496;BMP180;69819;48.798;11.770;2023-07-13T04:26:02;97472.00;;;22.10
80496;BMP180;69819;48.798;11.770;2023-07-13T04:28:28;97481.00;;;22.20
80496;BMP180;69819;48.798;11.770;2023-07-13T04:30:54;97481.00;;;22.40
80496;BMP180;69819;48.798;11.770;2023-07-13T04:33:20;97485.00;;;22.50
80496;BMP180;69819;48.798;11.770;2023-07-13T04:35:54;97477.00;;;22.60
80496;BMP180;69819;48.798;11.770;2023-07-13T04:38:23;97500.00;;;22.70
80496;BMP180;69819;48.798;11.770;2023-07-13T04:40:50;97498.00;;;22.80
80496;BMP180;69819;48.798;11.770;2023-07-13T04:43:17;97488.00;;;22.80
80496;BMP180;69819;48.798;11.770;2023-07-13T04:45:43;97491.00;;;22.80
80496;BMP180;69819;48.798;11.770;2023-07-13T04:48:09;97495.00;;;22.80
80496;BMP180;69819;48.798;11.770;2023-07-13T04:50:38;97499.00;;;22.80
80496;BMP180;69819;48.798;11.770;2023-07-13T04:53:05;97505.00;;;22.90
80496;BMP180;69819;48.798;11.770;2023-07-13T04:55:32;97481.00;;;22.90
80496;BMP180;69819;48.798;11.770;2023-07-13T04:57:58;97478.00;;;22.90
80496;BMP180;69819;48.798;11.770;2023-07-13T05:00:26;97521.00;;;22.90
80496;BMP180;69819;48.798;11.770;2023-07-13T05:02:55;97527.00;;;22.90
80496;BMP180;69819;48.798;11.770;2023-07-13T05:05:21;97494.00;;;23.00
80496;BMP180;69819;48.798;11.770;2023-07-13T05:07:47;97527.00;;;23.00
80496;BMP180;69819;48.798;11.770;2023-07-13T05:10:13;97516.00;;;23.10
80496;BMP180;69819;48.798;11.770;2023-07-13T05:12:39;97536.00;;;23.20
80496;BMP180;69819;48.798;11.770;2023-07-13T05:15:05;97548.00;;;23.30
80496;BMP180;69819;48.798;11.770;2023-07-13T05:17:32;97554.00;;;23.40
80496;BMP180;69819;48.798;11.770;2023-07-13T05:19:57;97549.00;;;23.50
80496;BMP180;69819;48.798;11.770;2023-07-13T05:22:23;97549.00;;;23.60
80496;BMP180;69819;48.798;11.770;2023-07-13T05:24:49;97564.00;;;23.70
80496;BMP180;69819;48.798;11.770;2023-07-13T05:27:15;97499.00;;;23.80
80496;BMP180;69819;48.798;11.770;2023-07-13T05:29:41;97538.00;;;23.90
80496;BMP180;69819;48.798;11.770;2023-07-13T05:32:07;97530.00;;;24.00
80496;BMP180;69819;48.798;11.770;2023-07-13T05:34:33;97558.00;;;24.10
80496;BMP180;69819;48.798;11.770;2023-07-13T05:36:59;97560.00;;;24.20
80496;BMP180;69819;48.798;11.770;2023-07-13T05:39:25;97566.00;;;24.20
80496;BMP180;69819;48.798;11.770;2023-07-13T05:41:51;97570.00;;;24.30
80496;BMP180;69819;48.798;11.770;2023-07-13T05:44:17;97568.00;;;24.40
80496;BMP180;69819;48.798;11.770;2023-07-13T05:46:44;97574.00;;;24.50
80496;BMP180;69819;48.798;11.770;2023-07-13T05:49:10;97569.00;;;24.50
80496;BMP180;69819;48.798;11.770;2023-07-13T05:51:36;97567.00;;;24.60
80496;BMP180;69819;48.798;11.770;2023-07-13T05:54:02;97571.00;;;24.70
80496;BMP180;69819;48.798;11.770;2023-07-13T05:56:28;97560.00;;;24.70
80496;BMP180;69819;48.798;11.770;2023-07-13T05:58:54;97557.00;;;24.80
80496;BMP180;69819;48.798;11.770;2023-07-13T06:01:20;97553.00;;;24.90
80496;BMP180;69819;48.798;11.770;2023-07-13T06:03:48;97534.00;;;25.10
80496;BMP180;69819;48.798;11.770;2023-07-13T06:06:14;97553.00;;;25.40
80496;BMP180;69819;48.798;11.770;2023-07-13T06:08:40;97566.00;;;25.70
80496;BMP180;69819;48.798;11.770;2023-07-13T06:11:19;97578.00;;;25.90
80496;BMP180;69819;48.798;11.770;2023-07-13T06:13:45;97576.00;;;26.20
80496;BMP180;69819;48.798;11.770;2023-07-13T06:16:14;97556.00;;;26.40
80496;BMP180;69819;48.798;11.770;2023-07-13T06:18:41;97580.00;;;26.50
80496;BMP180;69819;48.798;11.770;2023-07-13T06:21:16;97572.00;;;26.70
80496;BMP180;69819;48.798;11.770;2023-07-13T06:23:43;97581.00;;;26.90
80496;BMP180;69819;48.798;11.770;2023-07-13T06:26:09;97569.00;;;27.20
80496;BMP180;69819;48.798;11.770;2023-07-13T06:28:37;97571.00;;;27.70
80496;BMP180;69819;48.798;11.770;2023-07-13T06:31:10;97561.00;;;28.20
80496;BMP180;69819;48.798;11.770;2023-07-13T06:33:37;97567.00;;;29.00
80496;BMP180;69819;48.798;11.770;2023-07-13T06:36:05;97597.00;;;29.80
80496;BMP180;69819;48.798;11.770;2023-07-13T06:38:34;97565.00;;;30.70
80496;BMP180;69819;48.798;11.770;2023-07-13T06:41:00;97606.00;;;31.50
80496;BMP180;69819;48.798;11.770;2023-07-13T06:43:26;97592.00;;;32.40
80496;BMP180;69819;48.798;11.770;2023-07-13T06:45:55;97595.00;;;33.30
80496;BMP180;69819;48.798;11.770;2023-07-13T06:48:21;97616.00;;;34.10
80496;BMP180;69819;48.798;11.770;2023-07-13T06:50:49;97609.00;;;34.80
80496;BMP180;69819;48.798;11.770;2023-07-13T06:53:18;97612.00;;;35.50
80496;BMP180;69819;48.798;11.770;2023-07-13T06:55:45;97620.00;;;36.10
80496;BMP180;69819;48.798;11.770;2023-07-13T06:58:12;97615.00;;;36.50
80496;BMP180;69819;48.798;11.770;2023-07-13T07:00:38;97601.00;;;36.80
80496;BMP180;69819;48.798;11.770;2023-07-13T07:03:05;97616.00;;;37.10
80496;BMP180;69819;48.798;11.770;2023-07-13T07:05:31;97617.00;;;37.30
80496;BMP180;69819;48.798;11.770;2023-07-13T07:07:57;97634.00;;;37.60
80496;BMP180;69819;48.798;11.770;2023-07-13T07:10:23;97630.00;;;37.90
80496;BMP180;69819;48.798;11.770;2023-07-13T07:12:49;97636.00;;;38.30
80496;BMP180;69819;48.798;11.770;2023-07-13T07:15:15;97659.00;;;38.70
80496;BMP180;69819;48.798;11.770;2023-07-13T07:17:41;97659.00;;;39.10
80496;BMP180;69819;48.798;11.770;2023-07-13T07:20:08;97662.00;;;39.50
80496;BMP180;69819;48.798;11.770;2023-07-13T07:22:34;97656.00;;;39.80
80496;BMP180;69819;48.798;11.770;2023-07-13T07:25:00;97666.00;;;40.20
80496;BMP180;69819;48.798;11.770;2023-07-13T07:27:26;97657.00;;;40.40
80496;BMP180;69819;48.798;11.770;2023-07-13T07:29:52;97671.00;;;40.30
80496;BMP180;69819;48.798;11.770;2023-07-13T07:32:20;97671.00;;;40.20
80496;BMP180;69819;48.798;11.770;2023-07-13T07:34:46;97676.00;;;40.00
80496;BMP180;69819;48.798;11.770;2023-07-13T07:37:13;97672.00;;;39.80
80496;BMP180;69819;48.798;11.770;2023-07-13T07:39:39;97667.00;;;39.80
80496;BMP180;69819;48.798;11.770;2023-07-13T07:42:06;97671.00;;;39.90
80496;BMP180;69819;48.798;11.770;2023-07-13T07:44:32;97670.00;;;40.00
80496;BMP180;69819;48.798;11.770;2023-07-13T07:46:59;97658.00;;;40.10
80496;BMP180;69819;48.798;11.770;2023-07-13T07:49:25;97679.00;;;40.10
80496;BMP180;69819;48.798;11.770;2023-07-13T07:51:51;97672.00;;;40.00
80496;BMP180;69819;48.798;11.770;2023-07-13T07:54:17;97674.00;;;40.00
80496;BMP180;69819;48.798;11.770;2023-07-13T07:56:43;97687.00;;;40.00
80496;BMP180;69819;48.798;11.770;2023-07-13T07:59:09;97638.00;;;39.80
80496;BMP180;69819;48.798;11.770;2023-07-13T08:01:36;97677.00;;;39.40
80496;BMP180;69819;48.798;11.770;2023-07-13T08:04:02;97708.00;;;39.00
80496;BMP180;69819;48.798;11.770;2023-07-13T08:06:28;97685.00;;;38.60
80496;BMP180;69819;48.798;11.770;2023-07-13T08:08:55;97681.00;;;38.30
80496;BMP180;69819;48.798;11.770;2023-07-13T08:11:22;97681.00;;;38.10
80496;BMP180;69819;48.798;11.770;2023-07-13T08:13:49;97699.00;;;38.10
80496;BMP180;69819;48.798;11.770;2023-07-13T08:16:15;97705.00;;;38.20
80496;BMP180;69819;48.798;11.770;2023-07-13T08:18:41;97720.00;;;38.50
80496;BMP180;69819;48.798;11.770;2023-07-13T08:21:08;97715.00;;;38.70
80496;BMP180;69819;48.798;11.770;2023-07-13T08:23:35;97716.00;;;38.90
80496;BMP180;69819;48.798;11.770;2023-07-13T08:26:01;97704.00;;;38.90
80496;BMP180;69819;48.798;11.770;2023-07-13T08:28:29;97702.00;;;38.80
80496;BMP180;69819;48.798;11.770;2023-07-13T08:30:55;97693.00;;;38.60
80496;BMP180;69819;48.798;11.770;2023-07-13T08:33:22;97713.00;;;38.30
80496;BMP180;69819;48.798;11.770;2023-07-13T08:35:51;97722.00;;;38.10
80496;BMP180;69819;48.798;11.770;2023-07-13T08:38:18;97729.00;;;37.80
80496;BMP180;69819;48.798;11.770;2023-07-13T08:40:52;97725.00;;;37.40
80496;BMP180;69819;48.798;11.770;2023-07-13T08:43:26;97720.00;;;37.10
80496;BMP180;69819;48.798;11.770;2023-07-13T08:46:28;97714.00;;;36.70
80496;BMP180;69819;48.798;11.770;2023-07-13T08:49:01;97707.00;;;36.50
80496;BMP180;69819;48.798;11.770;2023-07-13T08:51:57;97717.00;;;36.70
80496;BMP180;69819;48.798;11.770;2023-07-13T08:54:44;97721.00;;;36.90
80496;BMP180;69819;48.798;11.770;2023-07-13T08:57:26;97723.00;;;37.20
80496;BMP180;69819;48.798;11.770;2023-07-13T08:59:55;97709.00;;;37.50
80496;BMP180;69819;48.798;11.770;2023-07-13T09:02:56;97727.00;;;37.80
80496;BMP180;69819;48.798;11.770;2023-07-13T09:05:40;97723.00;;;38.10
80496;BMP180;69819;48.798;11.770;2023-07-13T09:11:50;97726.00;;;38.70
80496;BMP180;69819;48.798;11.770;2023-07-13T09:14:41;97730.00;;;39.10
80496;BMP180;69819;48.798;11.770;2023-07-13T09:17:22;97727.00;;;39.30
80496;BMP180;69819;48.798;11.770;2023-07-13T09:20:25;97714.00;;;39.40
80496;BMP180;69819;48.798;11.770;2023-07-13T09:22:53;97722.00;;;39.30
80496;BMP180;69819;48.798;11.770;2023-07-13T09:25:36;97732.00;;;39.10
80496;BMP180;69819;48.798;11.770;2023-07-13T09:28:20;97691.00;;;39.00
80496;BMP180;69819;48.798;11.770;2023-07-13T09:30:56;97704.00;;;38.80
80496;BMP180;69819;48.798;11.770;2023-07-13T09:33:24;97724.00;;;38.60
80496;BMP180;69819;48.798;11.770;2023-07-13T09:35:50;97732.00;;;38.50
80496;BMP180;69819;48.798;11.770;2023-07-13T09:38:19;97727.00;;;38.40
80496;BMP180;69819;48.798;11.770;2023-07-13T09:43:26;97721.00;;;38.30
80496;BMP180;69819;48.798;11.770;2023-07-13T09:45:55;97732.00;;;38.30
80496;BMP180;69819;48.798;11.770;2023-07-13T09:48:21;97735.00;;;38.10
80496;BMP180;69819;48.798;11.770;2023-07-13T09:50:48;97720.00;;;38.00
80496;BMP180;69819;48.798;11.770;2023-07-13T09:53:18;97725.00;;;37.80
80496;BMP180;69819;48.798;11.770;2023-07-13T09:55:47;97737.00;;;37.80
80496;BMP180;69819;48.798;11.770;2023-07-13T09:58:29;97736.00;;;37.70
80496;BMP180;69819;48.798;11.770;2023-07-13T10:01:04;97744.00;;;37.80
80496;BMP180;69819;48.798;11.770;2023-07-13T10:03:34;97740.00;;;37.90
80496;BMP180;69819;48.798;11.770;2023-07-13T10:06:14;97744.00;;;37.90
80496;BMP180;69819;48.798;11.770;2023-07-13T10:08:41;97751.00;;;38.00
80496;BMP180;69819;48.798;11.770;2023-07-13T10:11:17;97745.00;;;38.00
80496;BMP180;69819;48.798;11.770;2023-07-13T10:13:54;97744.00;;;37.90
80496;BMP180;69819;48.798;11.770;2023-07-13T10:16:28;97745.00;;;37.90
80496;BMP180;69819;48.798;11.770;2023-07-13T10:19:23;97754.00;;;37.80
80496;BMP180;69819;48.798;11.770;2023-07-13T10:21:58;97732.00;;;37.80
80496;BMP180;69819;48.798;11.770;2023-07-13T10:24:37;97749.00;;;37.50
80496;BMP180;69819;48.798;11.770;2023-07-13T10:27:25;97746.00;;;37.30
80496;BMP180;69819;48.798;11.770;2023-07-13T10:30:19;97724.00;;;37.00
80496;BMP180;69819;48.798;11.770;2023-07-13T10:32:47;97743.00;;;36.90
80496;BMP180;69819;48.798;11.770;2023-07-13T10:35:15;97741.00;;;36.80
80496;BMP180;69819;48.798;11.770;2023-07-13T10:37:55;97748.00;;;36.60
80496;BMP180;69819;48.798;11.770;2023-07-13T10:40:40;97740.00;;;36.50
80496;BMP180;69819;48.798;11.770;2023-07-13T10:43:35;97734.00;;;36.40
80496;BMP180;69819;48.798;11.770;2023-07-13T10:46:11;97742.00;;;36.30
80496;BMP180;69819;48.798;11.770;2023-07-13T10:48:40;97747.00;;;36.20
80496;BMP180;69819;48.798;11.770;2023-07-13T10:51:09;97747.00;;;36.00
80496;BMP180;69819;48.798;11.770;2023-07-13T10:53:38;97744.00;;;35.80
80496;BMP180;69819;48.798;11.770;2023-07-13T10:56:29;97731.00;;;35.60
80496;BMP180;69819;48.798;11.770;2023-07-13T11:01:54;97739.00;;;35.20
80496;BMP180;69819;48.798;11.770;2023-07-13T11:04:23;97734.00;;;35.10
80496;BMP180;69819;48.798;11.770;2023-07-13T11:07:31;97739.00;;;34.80
80496;BMP180;69819;48.798;11.770;2023-07-13T11:10:05;97738.00;;;34.40
80496;BMP180;69819;48.798;11.770;2023-07-13T11:12:53;97731.00;;;34.40
80496;BMP180;69819;48.798;11.770;2023-07-13T11:15:48;97746.00;;;34.10
80496;BMP180;69819;48.798;11.770;2023-07-13T11:18:23;97734.00;;;33.90
80496;BMP180;69819;48.798;11.770;2023-07-13T11:20:51;97742.00;;;33.70
80496;BMP180;69819;48.798;11.770;2023-07-13T11:23:27;97709.00;;;33.50
80496;BMP180;69819;48.798;11.770;2023-07-13T11:25:53;97744.00;;;33.30
80496;BMP180;69819;48.798;11.770;2023-07-13T11:28:25;97733.00;;;33.10
80496;BMP180;69819;48.798;11.770;2023-07-13T11:36:13;97716.00;;;32.70
80496;BMP180;69819;48.798;11.770;2023-07-13T11:38:51;97682.00;;;32.50
80496;BMP180;69819;48.798;11.770;2023-07-13T11:41:42;97724.00;;;32.30
80496;BMP180;69819;48.798;11.770;2023-07-13T11:44:21;97721.00;;;32.20
80496;BMP180;69819;48.798;11.770;2023-07-13T11:46:52;97717.00;;;32.10
80496;BMP180;69819;48.798;11.770;2023-07-13T11:49:22;97713.00;;;32.00
80496;BMP180;69819;48.798;11.770;2023-07-13T11:51:48;97723.00;;;31.90
80496;BMP180;69819;48.798;11.770;2023-07-13T11:54:31;97715.00;;;31.80
80496;BMP180;69819;48.798;11.770;2023-07-13T11:59:51;97683.00;;;31.60
80496;BMP180;69819;48.798;11.770;2023-07-13T12:02:41;97709.00;;;31.50
80496;BMP180;69819;48.798;11.770;2023-07-13T12:05:13;97711.00;;;31.50
80496;BMP180;69819;48.798;11.770;2023-07-13T12:07:40;97710.00;;;31.50
80496;BMP180;69819;48.798;11.770;2023-07-13T12:12:36;97710.00;;;31.50
80496;BMP180;69819;48.798;11.770;2023-07-13T12:15:11;97704.00;;;31.50
80496;BMP180;69819;48.798;11.770;2023-07-13T12:17:38;97681.00;;;31.50
80496;BMP180;69819;48.798;11.770;2023-07-13T12:20:40;97694.00;;;31.50
80496;BMP180;69819;48.798;11.770;2023-07-13T12:23:24;97686.00;;;31.50
80496;BMP180;69819;48.798;11.770;2023-07-13T12:25:54;97676.00;;;31.50
80496;BMP180;69819;48.798;11.770;2023-07-13T12:28:47;97694.00;;;31.40
80496;BMP180;69819;48.798;11.770;2023-07-13T12:31:40;97695.00;;;31.30
80496;BMP180;69819;48.798;11.770;2023-07-13T12:34:15;97693.00;;;31.30
80496;BMP180;69819;48.798;11.770;2023-07-13T12:37:02;97656.00;;;31.20
80496;BMP180;69819;48.798;11.770;2023-07-13T12:44:50;97679.00;;;31.20
80496;BMP180;69819;48.798;11.770;2023-07-13T12:47:20;97639.00;;;31.20
80496;BMP180;69819;48.798;11.770;2023-07-13T12:49:59;97680.00;;;31.30
80496;BMP180;69819;48.798;11.770;2023-07-13T12:52:32;97676.00;;;31.30
80496;BMP180;69819;48.798;11.770;2023-07-13T12:55:11;97680.00;;;31.40
80496;BMP180;69819;48.798;11.770;2023-07-13T12:57:52;97667.00;;;31.50
80496;BMP180;69819;48.798;11.770;2023-07-13T13:00:29;97667.00;;;31.50
80496;BMP180;69819;48.798;11.770;2023-07-13T13:03:04;97662.00;;;31.50
80496;BMP180;69819;48.798;11.770;2023-07-13T13:05:32;97663.00;;;31.50
80496;BMP180;69819;48.798;11.770;2023-07-13T13:07:59;97665.00;;;31.60
80496;BMP180;69819;48.798;11.770;2023-07-13T13:10:25;97636.00;;;31.50
80496;BMP180;69819;48.798;11.770;2023-07-13T13:12:52;97658.00;;;31.50
80496;BMP180;69819;48.798;11.770;2023-07-13T13:15:19;97629.00;;;31.50
80496;BMP180;69819;48.798;11.770;2023-07-13T13:17:47;97661.00;;;31.50
80496;BMP180;69819;48.798;11.770;2023-07-13T13:20:20;97658.00;;;31.50
80496;BMP180;69819;48.798;11.770;2023-07-13T13:22:47;97649.00;;;31.50
80496;BMP180;69819;48.798;11.770;2023-07-13T13:25:15;97654.00;;;31.50
80496;BMP180;69819;48.798;11.770;2023-07-13T13:27:43;97645.00;;;31.60
80496;BMP180;69819;48.798;11.770;2023-07-13T13:30:16;97634.00;;;31.50
80496;BMP180;69819;48.798;11.770;2023-07-13T13:32:45;97648.00;;;31.50
80496;BMP180;69819;48.798;11.770;2023-07-13T13:35:18;97642.00;;;31.40
80496;BMP180;69819;48.798;11.770;2023-07-13T13:37:45;97649.00;;;31.40
80496;BMP180;69819;48.798;11.770;2023-07-13T13:40:19;97648.00;;;31.40
80496;BMP180;69819;48.798;11.770;2023-07-13T13:42:45;97654.00;;;31.40
80496;BMP180;69819;48.798;11.770;2023-07-13T13:45:12;97646.00;;;31.40
80496;BMP180;69819;48.798;11.770;2023-07-13T13:47:40;97650.00;;;31.40
80496;BMP180;69819;48.798;11.770;2023-07-13T13:50:21;97632.00;;;31.30
80496;BMP180;69819;48.798;11.770;2023-07-13T13:52:48;97635.00;;;31.40
80496;BMP180;69819;48.798;11.770;2023-07-13T13:55:21;97642.00;;;31.30
80496;BMP180;69819;48.798;11.770;2023-07-13T13:57:49;97657.00;;;31.20
80496;BMP180;69819;48.798;11.770;2023-07-13T14:00:16;97624.00;;;31.30
80496;BMP180;69819;48.798;11.770;2023-07-13T14:02:47;97621.00;;;31.40
80496;BMP180;69819;48.798;11.770;2023-07-13T14:05:22;97647.00;;;31.50
80496;BMP180;69819;48.798;11.770;2023-07-13T14:07:48;97642.00;;;31.60
80496;BMP180;69819;48.798;11.770;2023-07-13T14:10:18;97652.00;;;31.70
80496;BMP180;69819;48.798;11.770;2023-07-13T14:12:50;97660.00;;;31.70
80496;BMP180;69819;48.798;11.770;2023-07-13T14:15:29;97661.00;;;31.80
80496;BMP180;69819;48.798;11.770;2023-07-13T14:17:57;97654.00;;;31.90
80496;BMP180;69819;48.798;11.770;2023-07-13T14:20:25;97654.00;;;32.00
80496;BMP180;69819;48.798;11.770;2023-07-13T14:22:52;97649.00;;;32.00
80496;BMP180;69819;48.798;11.770;2023-07-13T14:25:20;97652.00;;;32.10
80496;BMP180;69819;48.798;11.770;2023-07-13T14:27:53;97654.00;;;32.20
80496;BMP180;69819;48.798;11.770;2023-07-13T14:30:22;97651.00;;;32.20
80496;BMP180;69819;48.798;11.770;2023-07-13T14:32:48;97636.00;;;32.20
80496;BMP180;69819;48.798;11.770;2023-07-13T14:35:21;97653.00;;;32.10
80496;BMP180;69819;48.798;11.770;2023-07-13T14:37:49;97664.00;;;32.10